Saxtons River, Vermont
Current Conditions -  °F | °C
As of 4:35 PM on Friday 28 Nov 2014 (Local Time) from KEEN Reporting Station
Broken Clouds Broken Clouds  
Wind Chill: 28°   Ceiling: 5000
Heat Index: 28°   Visibility: 10mi
Dew Point: 18°   Wind: 3mph
Humidity: 64%   Direction: 330°NNW
Pressure: 30.1"   Gusts: NA
Location:  43.14°N, 72.51°W
Report Text: KEEN 282135Z AUTO 33003KT 10SM BKN050 M02/M08 A3010 RMK AO1
Loading
Personal Weather Stations






























Interactive Weather Map New forecast layout! Learn more

10-Day Weather Forecast

Advertisements
Track Severe Weather on mobile